createdAt,value
2024-01-14T00:00:53.004Z,999.085
2024-01-14T00:05:46.998Z,999.086
2024-01-14T00:10:48.449Z,999.042
2024-01-14T00:15:50.127Z,998.862
2024-01-14T00:20:51.993Z,999.054
2024-01-14T00:25:50.206Z,998.809
2024-01-14T00:30:47.014Z,998.674
2024-01-14T00:35:47.774Z,998.593
2024-01-14T00:40:49.706Z,998.689
2024-01-14T00:45:48.647Z,998.693
2024-01-14T00:50:49.753Z,998.535
2024-01-14T00:55:53.175Z,998.658
2024-01-14T01:00:48.336Z,998.526
2024-01-14T01:05:49.381Z,998.53
2024-01-14T01:10:49.443Z,998.34
2024-01-14T01:15:50.818Z,998.41
2024-01-14T01:20:51.400Z,998.292
2024-01-14T01:25:51.723Z,998.148
2024-01-14T01:30:49.014Z,998.106
2024-01-14T01:35:49.089Z,998.198
2024-01-14T01:40:48.182Z,998.129
2024-01-14T01:45:51.590Z,998.113
2024-01-14T01:50:49.213Z,998.059
2024-01-14T01:55:50.341Z,997.917
2024-01-14T02:00:50.761Z,997.947
2024-01-14T02:05:48.121Z,997.955
2024-01-14T02:10:50.524Z,997.902
2024-01-14T02:15:48.282Z,997.735
2024-01-14T02:20:49.642Z,997.581
2024-01-14T02:40:49.033Z,997.487
2024-01-14T02:45:45.853Z,997.366
2024-01-14T02:50:45.013Z,997.302
2024-01-14T02:55:45.098Z,997.223
2024-01-14T03:00:45.376Z,997.152
2024-01-14T03:05:45.463Z,997.31
2024-01-14T03:10:47.238Z,997.108
2024-01-14T03:15:47.054Z,996.935
2024-01-14T03:20:45.828Z,996.676
2024-01-14T03:25:44.933Z,996.82
2024-01-14T03:30:45.137Z,996.852
2024-01-14T03:35:45.868Z,996.787
2024-01-14T03:40:46.204Z,996.583
2024-01-14T03:45:45.369Z,996.651
2024-01-14T03:50:45.984Z,996.709
2024-01-14T03:55:47.754Z,996.594
2024-01-14T04:00:47.621Z,996.405
2024-01-14T04:05:48.181Z,996.47
2024-01-14T04:10:45.879Z,996.392
2024-01-14T04:15:45.783Z,996.28
2024-01-14T04:20:47.261Z,996.277
2024-01-14T04:25:47.198Z,996.328
2024-01-14T04:30:46.493Z,996.201
2024-01-14T04:35:48.461Z,996.194
2024-01-14T04:40:45.475Z,996.167
2024-01-14T04:45:48.012Z,996.192
2024-01-14T04:50:49.938Z,996.083
2024-01-14T04:55:48.051Z,996.097
2024-01-14T05:00:45.123Z,996.188
2024-01-14T05:05:46.633Z,996.249
2024-01-14T05:10:46.359Z,996.073
2024-01-14T05:15:48.622Z,996.12
2024-01-14T05:20:47.433Z,996.086
2024-01-14T05:25:48.671Z,996.048
2024-01-14T05:30:46.309Z,996.125
2024-01-14T05:35:46.711Z,996.12
2024-01-14T05:40:46.506Z,996.125
2024-01-14T05:45:47.223Z,996.118
2024-01-14T05:50:49.019Z,996.198
2024-01-14T05:55:47.500Z,995.958
2024-01-14T06:00:47.546Z,996.089
2024-01-14T06:05:46.844Z,996.178
2024-01-14T06:10:45.583Z,996.248
2024-01-14T06:15:47.021Z,996.115
2024-01-14T06:20:47.417Z,996.122
2024-01-14T06:25:52.277Z,996.045
2024-01-14T06:30:49.291Z,996.016
2024-01-14T06:35:48.004Z,996.043
2024-01-14T06:45:51.446Z,995.889
2024-01-14T06:50:49.423Z,995.989
2024-01-14T06:55:52.286Z,996.071
2024-01-14T07:00:52.476Z,996.034
2024-01-14T07:05:50.295Z,996.026
2024-01-14T07:10:52.564Z,996.057
2024-01-14T07:15:51.244Z,995.999
2024-01-14T07:20:51.189Z,996.053
2024-01-14T07:25:51.066Z,996.053
2024-01-14T07:30:49.315Z,996.254
2024-01-14T07:35:51.089Z,996.116
2024-01-14T07:40:50.975Z,996.236
2024-01-14T07:45:56.181Z,996.175
2024-01-14T07:50:50.856Z,996.088
2024-01-14T07:55:54.653Z,995.887
2024-01-14T08:01:00.401Z,995.856
2024-01-14T08:05:53.284Z,996.059
2024-01-14T08:10:55.724Z,996.27
2024-01-14T08:15:56.499Z,996.233
2024-01-14T08:20:52.956Z,996.206
2024-01-14T08:25:55.038Z,996.097
2024-01-14T08:30:56.173Z,996.014
2024-01-14T08:35:50.465Z,996.086
2024-01-14T08:40:56.993Z,996.172
2024-01-14T08:45:55.925Z,996.191
2024-01-14T08:50:52.073Z,996.186
2024-01-14T08:55:56.091Z,996.088
2024-01-14T09:00:51.917Z,996.034
2024-01-14T09:05:49.387Z,996.186
2024-01-14T09:10:52.345Z,996.238
2024-01-14T09:15:52.335Z,996.442
2024-01-14T09:20:52.010Z,996.478
2024-01-14T09:25:53.683Z,996.358
2024-01-14T09:30:52.426Z,996.426
2024-01-14T09:35:54.819Z,996.41
2024-01-14T09:40:51.956Z,996.528
2024-01-14T09:45:52.300Z,996.427
2024-01-14T09:50:50.641Z,996.364
2024-01-14T09:55:51.591Z,996.321
2024-01-14T10:00:53.257Z,996.284
2024-01-14T10:05:52.432Z,996.293
2024-01-14T10:10:56.705Z,996.213
2024-01-14T10:15:58.973Z,996.304
2024-01-14T10:20:53.960Z,995.943
2024-01-14T10:25:52.093Z,996.007
2024-01-14T10:30:52.001Z,995.92
2024-01-14T10:35:52.630Z,996.055
2024-01-14T10:40:51.754Z,996.026
2024-01-14T10:45:53.189Z,995.881
2024-01-14T10:50:52.503Z,995.862
2024-01-14T10:55:52.725Z,995.751
2024-01-14T11:00:55.774Z,995.791
2024-01-14T11:05:52.984Z,995.669
2024-01-14T11:10:51.256Z,995.518
2024-01-14T11:15:52.131Z,995.335
2024-01-14T11:21:02.582Z,995.411
2024-01-14T11:25:52.755Z,995.424
2024-01-14T11:30:51.199Z,995.199
2024-01-14T11:35:52.553Z,995.146
2024-01-14T11:40:49.698Z,994.977
2024-01-14T11:45:51.141Z,994.977
2024-01-14T11:50:54.484Z,994.929
2024-01-14T11:55:49.695Z,995.004
2024-01-14T12:00:51.649Z,994.792
2024-01-14T12:05:52.318Z,994.769
2024-01-14T12:10:50.586Z,994.748
2024-01-14T12:15:52.374Z,994.714
2024-01-14T12:20:54.332Z,994.561
2024-01-14T12:25:51.177Z,994.589
2024-01-14T12:30:53.365Z,994.536
2024-01-14T12:35:50.063Z,994.563
2024-01-14T12:40:51.915Z,994.33
2024-01-14T12:45:55.961Z,994.297
2024-01-14T12:50:51.247Z,994.301
2024-01-14T12:55:52.840Z,994.207
2024-01-14T13:00:55.331Z,994.131
2024-01-14T13:05:55.548Z,993.989
2024-01-14T13:10:52.972Z,994.062
2024-01-14T13:15:50.169Z,994.012
2024-01-14T13:20:52.925Z,993.99
2024-01-14T13:25:55.003Z,993.899
2024-01-14T13:30:52.044Z,993.993
2024-01-14T13:35:53.123Z,993.918
2024-01-14T13:40:52.132Z,993.822
2024-01-14T13:45:55.327Z,993.906
2024-01-14T13:50:53.419Z,993.996
2024-01-14T13:55:53.281Z,993.894
2024-01-14T14:00:53.591Z,993.771
2024-01-14T14:05:53.500Z,993.732
2024-01-14T14:10:56.500Z,993.785
2024-01-14T14:15:54.167Z,993.696
2024-01-14T14:20:52.777Z,993.727
2024-01-14T14:25:48.762Z,993.601
2024-01-14T14:30:49.996Z,993.692
2024-01-14T14:35:51.826Z,993.589
2024-01-14T14:40:48.357Z,993.534
2024-01-14T14:45:51.281Z,993.578
2024-01-14T14:50:55.380Z,993.478
2024-01-14T14:55:53.405Z,993.639
2024-01-14T15:00:49.457Z,993.407
2024-01-14T15:05:48.554Z,993.508
2024-01-14T15:10:50.248Z,993.522
2024-01-14T15:15:51.744Z,993.454
2024-01-14T15:20:51.990Z,993.44
2024-01-14T15:25:52.445Z,993.29
2024-01-14T15:30:53.246Z,993.248
2024-01-14T15:35:46.490Z,993.412
2024-01-14T15:40:53.839Z,993.386
2024-01-14T15:45:47.490Z,993.338
2024-01-14T15:50:57.202Z,993.118
2024-01-14T15:55:50.819Z,993.147
2024-01-14T16:00:56.564Z,993.088
2024-01-14T16:05:50.616Z,992.979
2024-01-14T16:10:50.986Z,993.022
2024-01-14T16:15:49.109Z,992.933
2024-01-14T16:20:55.815Z,992.917
2024-01-14T16:25:48.149Z,992.947
2024-01-14T16:30:53.263Z,992.833
2024-01-14T16:35:54.677Z,992.877
2024-01-14T16:40:52.916Z,992.806
2024-01-14T16:45:50.496Z,992.964
2024-01-14T16:50:51.588Z,992.842
2024-01-14T16:55:52.546Z,992.888
2024-01-14T17:00:58.461Z,992.873
2024-01-14T17:05:50.828Z,992.655
2024-01-14T17:10:54.088Z,992.703
2024-01-14T17:15:56.667Z,992.435
2024-01-14T17:20:48.048Z,992.462
2024-01-14T17:25:50.237Z,992.564
2024-01-14T17:30:49.296Z,992.553
2024-01-14T17:35:54.824Z,992.416
2024-01-14T17:40:47.586Z,992.404
2024-01-14T17:45:55.059Z,992.25
2024-01-14T17:50:47.252Z,992.148
2024-01-14T17:55:45.198Z,992.413
2024-01-14T18:00:45.239Z,992.315
2024-01-14T18:05:46.981Z,992.378
2024-01-14T18:10:48.374Z,992.362
2024-01-14T18:15:47.382Z,992.446
2024-01-14T18:20:47.489Z,992.317
2024-01-14T18:25:52.605Z,992.347
2024-01-14T18:30:50.222Z,992.369
2024-01-14T18:35:46.467Z,992.462
2024-01-14T18:40:52.856Z,992.228
2024-01-14T18:45:46.828Z,992.096
2024-01-14T18:50:48.295Z,991.978
2024-01-14T18:55:48.948Z,992.11
2024-01-14T19:00:46.600Z,992.048
2024-01-14T19:05:50.968Z,992.017
2024-01-14T19:10:52.930Z,991.844
2024-01-14T19:15:50.458Z,992.085
2024-01-14T19:20:48.336Z,991.816
2024-01-14T19:25:53.934Z,991.872
2024-01-14T19:30:50.811Z,991.687
2024-01-14T19:35:47.597Z,991.634
2024-01-14T19:40:51.317Z,991.576
2024-01-14T19:45:48.237Z,991.548
2024-01-14T19:50:49.699Z,991.486
2024-01-14T19:55:47.492Z,991.496
2024-01-14T20:00:47.916Z,991.509
2024-01-14T20:05:47.971Z,991.46
2024-01-14T20:10:48.468Z,991.447
2024-01-14T20:15:56.972Z,991.406
2024-01-14T20:20:54.067Z,991.527
2024-01-14T20:25:59.993Z,991.189
2024-01-14T20:30:47.628Z,991.122
2024-01-14T20:35:48.961Z,991.192
2024-01-14T20:40:46.864Z,991.059
2024-01-14T20:45:49.486Z,991.151
2024-01-14T20:50:51.679Z,990.933
2024-01-14T20:55:53.962Z,990.909
2024-01-14T21:00:54.568Z,990.739
2024-01-14T21:05:47.336Z,990.824
2024-01-14T21:10:48.221Z,990.634
2024-01-14T21:15:51.263Z,990.663
2024-01-14T21:20:47.425Z,990.635
2024-01-14T21:25:45.519Z,990.461
2024-01-14T21:30:49.242Z,990.466
2024-01-14T21:35:49.020Z,990.385
2024-01-14T21:40:50.409Z,990.199
2024-01-14T21:45:47.902Z,990.357
2024-01-14T21:50:45.494Z,990.372
2024-01-14T21:55:50.576Z,990.241
2024-01-14T22:00:48.150Z,990.078
2024-01-14T22:05:46.238Z,990.1
2024-01-14T22:10:48.185Z,989.986
2024-01-14T22:15:48.166Z,990.025
2024-01-14T22:20:45.944Z,989.961
2024-01-14T22:25:47.302Z,990.01
2024-01-14T22:30:47.821Z,989.938
2024-01-14T22:35:47.676Z,989.76
2024-01-14T22:40:48.094Z,989.772
2024-01-14T22:45:49.418Z,989.634
2024-01-14T22:50:48.558Z,989.647
2024-01-14T22:55:49.161Z,989.504
2024-01-14T23:00:50.525Z,989.449
2024-01-14T23:05:48.919Z,989.071
2024-01-14T23:10:46.140Z,989.183
2024-01-14T23:15:46.973Z,989.06
2024-01-14T23:20:45.197Z,989.036
2024-01-14T23:25:49.411Z,988.988
2024-01-14T23:30:48.032Z,988.833
2024-01-14T23:35:46.838Z,988.679
2024-01-14T23:40:50.861Z,988.64
2024-01-14T23:45:46.079Z,988.597
2024-01-14T23:50:47.556Z,988.375
2024-01-14T23:55:48.688Z,988.374
